Time;durP1;ratioP1;P1;durP2;ratioP2;P2;SDS_P1;SDS_P2;PMS_P1;PMS_P2;Temp;Humidity;BMP_temperature;BMP_pressure;BME280_temperature;BME280_humidity;BME280_pressure;Samples;Min_cycle;Max_cycle;Signal;HPM_P1;HPM_P2
2023/10/09 00:01:52;;;;;;;25.20;21.10;;;;;;;0.93;98.22;98762.15;106455;1283;22544;-87
2023/10/09 00:04:20;;;;;;;26.90;23.20;;;;;;;0.91;98.13;98763.52;106752;1282;23815;-87
2023/10/09 00:06:48;;;;;;;21.50;19.30;;;;;;;0.90;98.27;98768.53;106732;1283;24241;-89
2023/10/09 00:11:57;;;;;;;17.40;14.60;;;;;;;0.98;96.77;98765.88;106770;1282;22575;-89
2023/10/09 00:14:30;;;;;;;17.80;16.00;;;;;;;1.03;96.35;98765.98;106727;1283;25435;-88
2023/10/09 00:19:59;;;;;;;21.60;19.40;;;;;;;0.90;98.43;98778.24;106446;1282;22984;-88
2023/10/09 00:22:29;;;;;;;20.50;18.20;;;;;;;0.86;99.04;98778.70;106725;1282;24393;-89
2023/10/09 00:25:11;;;;;;;56.60;51.80;;;;;;;0.84;98.19;98764.73;106619;1282;25428;-88
2023/10/09 00:27:51;;;;;;;26.60;20.00;;;;;;;0.86;97.49;98753.75;107077;1283;25352;-89
2023/10/09 00:30:21;;;;;;;19.80;17.50;;;;;;;0.82;96.75;98742.02;107217;1282;22567;-88
2023/10/09 00:33:01;;;;;;;19.00;17.10;;;;;;;0.82;97.09;98741.15;107929;1282;23927;-89
2023/10/09 00:39:00;;;;;;;19.90;17.90;;;;;;;0.71;98.63;98737.77;106511;1283;22781;-91
2023/10/09 00:41:29;;;;;;;18.50;16.50;;;;;;;0.71;98.20;98721.81;106686;1282;24375;-88
2023/10/09 00:43:59;;;;;;;21.00;18.80;;;;;;;0.69;99.29;98720.23;106795;1282;22533;-89
2023/10/09 00:46:27;;;;;;;21.40;19.20;;;;;;;0.68;98.77;98712.20;106803;1279;22673;-89
2023/10/09 00:49:01;;;;;;;37.00;33.50;;;;;;;0.63;98.54;98706.84;106894;1282;22542;-89
2023/10/09 00:51:38;;;;;;;21.10;19.10;;;;;;;0.61;98.42;98690.70;106916;1281;22589;-89
2023/10/09 00:54:14;;;;;;;21.60;19.40;;;;;;;0.69;98.36;98671.43;107911;1280;22547;-90
2023/10/09 00:56:51;;;;;;;22.90;19.40;;;;;;;0.74;98.19;98658.98;106993;1257;22964;-90
2023/10/09 00:59:22;;;;;;;25.90;23.30;;;;;;;0.70;98.67;98659.30;106691;1280;22578;-89
2023/10/09 01:06:21;;;;;;;;;;;;;;;0.71;100.00;98660.20;106879;1280;22620;-88
2023/10/09 01:09:06;;;;;;;116.70;106.60;;;;;;;0.65;100.00;98639.05;106999;1280;23264;-85
2023/10/09 01:11:34;;;;;;;23.30;21.00;;;;;;;0.56;99.61;98629.53;106812;1280;22820;-87
2023/10/09 01:16:36;;;;;;;20.70;18.60;;;;;;;0.47;99.62;98638.20;106725;1280;22769;-87
2023/10/09 01:19:12;;;;;;;20.10;17.70;;;;;;;0.51;100.00;98639.45;106668;1280;22719;-87
2023/10/09 01:21:41;;;;;;;21.90;19.80;;;;;;;0.55;100.00;98639.36;107118;1280;24242;-88
2023/10/09 01:24:08;;;;;;;21.20;19.00;;;;;;;0.49;100.00;98635.14;107469;1280;22636;-87
2023/10/09 01:26:46;;;;;;;23.20;20.10;;;;;;;0.60;100.00;98645.30;106813;1280;22533;-89
2023/10/09 01:29:18;;;;;;;21.80;19.60;;;;;;;0.60;100.00;98652.73;106710;1281;22562;-86
2023/10/09 01:34:24;;;;;;;21.40;19.40;;;;;;;0.64;100.00;98650.52;106799;1280;24356;-86
2023/10/09 01:36:59;;;;;;;24.40;21.90;;;;;;;0.65;100.00;98652.08;106678;1280;25253;-86
2023/10/09 01:39:30;;;;;;;24.00;21.50;;;;;;;0.66;100.00;98655.86;106731;1280;24382;-87
2023/10/09 01:41:58;;;;;;;24.50;21.90;;;;;;;0.70;100.00;98655.06;106816;1280;22537;-88
2023/10/09 01:44:34;;;;;;;20.70;18.50;;;;;;;0.75;100.00;98656.08;106735;1280;25435;-91
2023/10/09 01:47:07;;;;;;;21.40;18.90;;;;;;;0.81;100.00;98653.36;106644;1280;25630;-88
2023/10/09 01:49:37;;;;;;;21.10;19.00;;;;;;;0.88;100.00;98652.05;106921;1276;22531;-87
2023/10/09 01:52:09;;;;;;;28.60;25.80;;;;;;;0.95;100.00;98655.91;107077;1280;24229;-87
2023/10/09 01:54:37;;;;;;;23.80;21.40;;;;;;;0.97;100.00;98657.20;107110;1280;22633;-88
2023/10/09 01:57:12;;;;;;;23.70;21.40;;;;;;;0.96;100.00;98653.66;106752;1280;23927;-88
2023/10/09 01:59:49;;;;;;;21.80;19.50;;;;;;;0.99;100.00;98641.92;106756;1280;22544;-89
2023/10/09 02:02:31;;;;;;;21.20;18.40;;;;;;;1.05;100.00;98643.52;107542;1280;22603;-87
2023/10/09 02:05:10;;;;;;;29.80;25.80;;;;;;;1.10;100.00;98647.64;109091;1280;24160;-89
2023/10/09 02:07:51;;;;;;;43.30;34.70;;;;;;;1.14;100.00;98642.65;109587;1280;22530;-90
2023/10/09 02:12:57;;;;;;;29.50;26.70;;;;;;;1.37;100.00;98620.86;106823;1280;22536;-88
2023/10/09 02:26:17;;;;;;;57.50;45.40;;;;;;;1.56;100.00;98589.17;106866;1280;23391;-89
2023/10/09 02:28:58;;;;;;;25.40;22.80;;;;;;;1.63;100.00;98597.65;106898;1280;22569;-88
2023/10/09 02:31:40;;;;;;;21.00;18.90;;;;;;;1.63;100.00;98586.27;106930;1280;24388;-88
2023/10/09 02:34:15;;;;;;;21.60;19.50;;;;;;;1.72;100.00;98574.95;106893;1280;23130;-87
2023/10/09 02:36:49;;;;;;;22.60;20.30;;;;;;;1.83;100.00;98582.35;107011;1280;24307;-87
2023/10/09 02:39:23;;;;;;;25.30;22.70;;;;;;;1.92;100.00;98582.22;106896;1280;22791;-89
2023/10/09 02:44:52;;;;;;;25.70;22.80;;;;;;;2.02;100.00;98596.95;106827;1280;25284;-89
2023/10/09 02:47:24;;;;;;;23.70;21.30;;;;;;;2.04;100.00;98596.52;106919;1280;22584;-89
2023/10/09 02:49:52;;;;;;;22.00;19.60;;;;;;;2.10;100.00;98601.55;106560;1280;24181;-88
2023/10/09 02:52:25;;;;;;;21.70;19.60;;;;;;;2.18;100.00;98588.05;106830;1280;22583;-87
2023/10/09 02:54:59;;;;;;;22.00;19.70;;;;;;;2.31;100.00;98588.35;106843;1280;24401;-89
2023/10/09 02:57:36;;;;;;;;;;;;;;;2.41;100.00;98579.69;106941;1280;25512;-88
2023/10/09 03:00:18;;;;;;;86.70;54.50;;;;;;;2.45;100.00;98574.19;106821;1280;25399;-88
2023/10/09 03:02:49;;;;;;;34.50;29.30;;;;;;;2.46;100.00;98574.33;106919;1280;23933;-89
2023/10/09 03:05:20;;;;;;;23.40;20.90;;;;;;;2.45;100.00;98582.65;106885;1280;22530;-90
2023/10/09 03:07:49;;;;;;;21.50;19.40;;;;;;;2.47;100.00;98588.40;106973;1280;22530;-89
2023/10/09 03:10:17;;;;;;;21.60;19.20;;;;;;;2.53;100.00;98589.70;106951;1280;22531;-89
2023/10/09 03:12:45;;;;;;;22.10;19.90;;;;;;;2.60;100.00;98591.98;106860;1280;24219;-88
2023/10/09 03:15:13;;;;;;;79.40;55.60;;;;;;;2.65;100.00;98582.61;106719;1275;22738;-89
2023/10/09 03:17:44;;;;;;;54.50;43.50;;;;;;;2.70;100.00;98575.27;107893;1280;23012;-88
2023/10/09 03:20:14;;;;;;;51.70;43.20;;;;;;;2.78;100.00;98585.98;107551;1280;25482;-88
2023/10/09 03:22:48;;;;;;;21.40;19.30;;;;;;;2.78;100.00;98586.40;107932;1276;24036;-90
2023/10/09 03:25:16;;;;;;;21.30;19.00;;;;;;;2.72;100.00;98583.94;107429;1280;25300;-89
2023/10/09 03:27:45;;;;;;;19.90;17.90;;;;;;;2.72;100.00;98580.52;107929;1280;25963;-89
2023/10/09 03:30:22;;;;;;;111.70;78.60;;;;;;;2.74;100.00;98575.14;107223;1262;22540;-88
2023/10/09 03:32:53;;;;;;;31.40;28.40;;;;;;;2.75;100.00;98570.69;107621;1280;22657;-89
2023/10/09 03:35:26;;;;;;;25.00;22.30;;;;;;;2.81;100.00;98563.80;107901;1280;24269;-89
2023/10/09 03:38:12;;;;;;;34.50;30.90;;;;;;;2.87;100.00;98547.96;108223;1280;22560;-87
2023/10/09 03:40:43;;;;;;;22.30;20.10;;;;;;;2.98;100.00;98557.99;107128;1280;22643;-88
2023/10/09 03:43:11;;;;;;;20.10;17.60;;;;;;;3.00;100.00;98564.11;107044;1280;24220;-88
2023/10/09 03:45:52;;;;;;;29.20;26.40;;;;;;;3.02;100.00;98560.75;107095;1280;22784;-88
2023/10/09 03:48:31;;;;;;;24.30;22.00;;;;;;;3.07;100.00;98549.92;107914;1280;23751;-89
2023/10/09 03:51:09;;;;;;;30.30;27.20;;;;;;;3.11;100.00;98534.28;107763;1280;22564;-88
2023/10/09 03:53:42;;;;;;;29.80;26.90;;;;;;;3.16;100.00;98519.67;107833;1280;22664;-89
2023/10/09 03:56:15;;;;;;;26.30;23.70;;;;;;;3.25;100.00;98503.70;107531;1280;22619;-92
2023/10/09 03:58:49;;;;;;;25.20;22.70;;;;;;;3.37;100.00;98502.63;107508;1280;22569;-88
2023/10/09 04:01:28;;;;;;;31.90;28.80;;;;;;;3.45;100.00;98512.99;107097;1280;24298;-89
2023/10/09 04:04:00;;;;;;;23.40;21.20;;;;;;;3.45;100.00;98512.79;106938;1280;24929;-89
2023/10/09 04:06:32;;;;;;;21.20;19.10;;;;;;;3.45;100.00;98514.85;106895;1280;22485;-88
2023/10/09 04:09:13;;;;;;;19.30;17.40;;;;;;;3.43;100.00;98517.80;107139;1280;25420;-88
2023/10/09 04:11:43;;;;;;;20.70;18.50;;;;;;;3.44;100.00;98519.98;106759;1280;25369;-89
2023/10/09 04:14:19;;;;;;;20.10;18.10;;;;;;;3.48;100.00;98515.28;107775;1280;22572;-88
2023/10/09 04:19:47;;;;;;;27.10;24.40;;;;;;;3.56;100.00;98499.60;108295;1280;22575;-88
2023/10/09 04:22:26;;;;;;;29.10;23.60;;;;;;;3.58;100.00;98497.57;108282;1280;22524;-89
2023/10/09 04:24:55;;;;;;;23.30;18.90;;;;;;;3.62;100.00;98499.84;108586;1280;22551;-87
2023/10/09 04:27:35;;;;;;;20.30;18.00;;;;;;;3.68;100.00;98491.14;107851;1280;22544;-88
2023/10/09 04:30:07;;;;;;;19.10;16.00;;;;;;;3.76;100.00;98483.98;106787;1275;22554;-87
2023/10/09 04:32:35;;;;;;;23.00;19.60;;;;;;;3.88;100.00;98476.82;106687;1280;25278;-87
2023/10/09 04:38:00;;;;;;;45.50;37.90;;;;;;;4.06;100.00;98470.41;106823;1280;25513;-87
2023/10/09 04:43:20;;;;;;;16.10;14.40;;;;;;;4.02;100.00;98468.20;106716;1280;22682;-88
2023/10/09 04:48:38;;;;;;;24.60;21.30;;;;;;;4.01;100.00;98456.09;106846;1280;24314;-87
2023/10/09 04:51:34;;;;;;;24.10;21.50;;;;;;;4.05;100.00;98457.44;106895;1280;22530;-88
2023/10/09 04:54:19;;;;;;;19.60;17.30;;;;;;;4.04;100.00;98455.14;106710;1264;23893;-88
2023/10/09 04:56:54;;;;;;;63.00;49.10;;;;;;;4.05;100.00;98453.33;107044;1280;25253;-89
2023/10/09 04:59:25;;;;;;;64.30;47.10;;;;;;;4.06;100.00;98447.90;106936;1280;24214;-89
2023/10/09 05:02:04;;;;;;;32.20;24.30;;;;;;;4.14;100.00;98442.04;106627;1280;22527;-91
2023/10/09 05:05:16;;;;;;;25.00;19.70;;;;;;;4.20;100.00;98436.05;106986;1280;25194;-89
2023/10/09 05:07:54;;;;;;;25.10;21.60;;;;;;;4.26;100.00;98434.39;107392;1280;22544;-86
2023/10/09 05:10:25;;;;;;;21.90;17.20;;;;;;;4.31;100.00;98432.85;106966;1280;22651;-88
2023/10/09 05:12:59;;;;;;;34.00;29.10;;;;;;;4.37;100.00;98428.99;106910;1280;23718;-89
2023/10/09 05:15:29;;;;;;;22.50;19.80;;;;;;;4.43;100.00;98420.88;107131;1280;22549;-88
2023/10/09 05:17:58;;;;;;;21.80;17.50;;;;;;;4.48;100.00;98419.92;107068;1280;22776;-91
2023/10/09 05:22:58;;;;;;;17.30;14.90;;;;;;;4.50;100.00;98412.42;106817;1280;23231;-88
2023/10/09 05:28:30;;;;;;;36.70;32.40;;;;;;;4.52;100.00;98400.07;106686;1280;22571;-88
2023/10/09 05:31:09;;;;;;;20.20;17.20;;;;;;;4.57;100.00;98398.91;106897;1280;22620;-87
2023/10/09 05:33:38;;;;;;;18.50;16.60;;;;;;;4.66;100.00;98387.22;106654;1280;22534;-89
2023/10/09 05:38:59;;;;;;;18.70;16.90;;;;;;;4.83;100.00;98378.77;106871;1280;22524;-88
2023/10/09 05:41:52;;;;;;;26.30;23.40;;;;;;;4.87;100.00;98375.07;107500;1280;22534;-87
2023/10/09 05:47:29;;;;;;;29.60;26.90;;;;;;;4.82;100.00;98380.05;106505;1280;23150;-87
2023/10/09 05:50:34;;;;;;;26.80;24.40;;;;;;;4.79;100.00;98375.58;106879;1280;25403;-87
2023/10/09 06:04:54;;;;;;;46.50;39.70;;;;;;;4.57;100.00;98383.05;106456;1287;23922;-90
2023/10/09 06:13:46;;;;;;;38.20;29.30;;;;;;;4.63;100.00;98407.95;106197;1292;22547;-88
2023/10/09 06:17:43;;;;;;;55.80;34.30;;;;;;;4.70;100.00;98410.55;106093;1291;22578;-87
2023/10/09 06:21:00;;;;;;;34.80;21.60;;;;;;;4.75;100.00;98416.33;106563;1291;22815;-86
2023/10/09 06:23:15;;;;;;;46.60;30.20;;;;;;;4.79;100.00;98416.05;106315;1288;22537;-89
2023/10/09 06:25:53;;;;;;;26.30;17.30;;;;;;;4.84;100.00;98413.44;106333;1286;23816;-89
2023/10/09 06:28:32;;;;;;;26.10;21.20;;;;;;;4.91;100.00;98406.73;106502;1286;25754;-88
2023/10/09 06:31:27;;;;;;;36.10;31.50;;;;;;;4.97;100.00;98410.23;106663;1284;25327;-89
2023/10/09 06:34:15;;;;;;;18.90;15.80;;;;;;;5.01;100.00;98416.53;107044;1284;22946;-87
2023/10/09 06:36:52;;;;;;;15.60;13.90;;;;;;;5.02;100.00;98411.94;107812;1280;22539;-88
2023/10/09 06:42:30;;;;;;;28.90;23.20;;;;;;;5.19;100.00;98409.56;109824;1280;25250;-88
2023/10/09 06:45:08;;;;;;;16.50;14.00;;;;;;;5.30;100.00;98416.16;107898;1280;25576;-89
2023/10/09 06:48:40;;;;;;;16.80;14.40;;;;;;;5.32;100.00;98418.69;106806;1280;22565;-88
2023/10/09 06:59:15;;;;;;;14.70;13.20;;;;;;;5.36;100.00;98430.80;106857;1280;22543;-87
2023/10/09 07:01:43;;;;;;;15.40;13.60;;;;;;;5.39;100.00;98426.35;106793;1280;22564;-89
2023/10/09 07:04:19;;;;;;;17.60;15.80;;;;;;;5.40;100.00;98422.29;106972;1280;25419;-89
2023/10/09 07:06:50;;;;;;;16.80;13.90;;;;;;;5.40;100.00;98422.03;106893;1280;22571;-88
2023/10/09 07:09:19;;;;;;;13.50;12.10;;;;;;;5.42;100.00;98420.92;106926;1280;22557;-89
2023/10/09 07:17:15;;;;;;;24.70;22.30;;;;;;;5.37;100.00;98418.58;106939;1280;24367;-89
2023/10/09 07:24:57;;;;;;;8.30;7.20;;;;;;;5.36;100.00;98414.55;106859;1280;24260;-87
2023/10/09 07:27:44;;;;;;;15.20;8.00;;;;;;;5.38;100.00;98406.78;107530;1280;22661;-90
2023/10/09 07:38:19;;;;;;;6.60;5.00;;;;;;;5.51;100.00;98409.98;106848;1280;25581;-88
2023/10/09 07:40:59;;;;;;;6.70;4.80;;;;;;;5.57;100.00;98401.17;106782;1280;25392;-89
2023/10/09 07:43:39;;;;;;;10.10;5.60;;;;;;;5.62;100.00;98394.28;107222;1277;22767;-89
2023/10/09 07:49:00;;;;;;;8.70;5.90;;;;;;;5.66;100.00;98389.02;106821;1280;22528;-92
2023/10/09 07:51:31;;;;;;;7.10;5.20;;;;;;;5.69;100.00;98389.52;106904;1277;22574;-93
2023/10/09 07:54:07;;;;;;;8.10;4.80;;;;;;;5.75;100.00;98397.33;106905;1280;24212;-88
2023/10/09 07:56:45;;;;;;;6.20;5.10;;;;;;;5.78;100.00;98401.57;106837;1280;22543;-89
2023/10/09 07:59:18;;;;;;;8.90;6.70;;;;;;;5.79;100.00;98400.77;106905;1280;22547;-89
2023/10/09 08:01:58;;;;;;;8.90;7.00;;;;;;;5.78;100.00;98406.01;106908;1280;25423;-90
2023/10/09 08:07:34;;;;;;;9.70;7.10;;;;;;;5.83;100.00;98403.27;106804;1280;22531;-90
2023/10/09 08:18:18;;;;;;;8.40;5.30;;;;;;;5.77;100.00;98370.97;106896;1270;24251;-89
2023/10/09 08:23:29;;;;;;;6.70;4.80;;;;;;;5.76;100.00;98359.47;106957;1280;25601;-88
2023/10/09 08:26:12;;;;;;;6.20;5.10;;;;;;;5.78;100.00;98358.04;107833;1280;22777;-89
2023/10/09 08:28:48;;;;;;;6.60;5.00;;;;;;;5.77;100.00;98353.05;107678;1280;23014;-89
2023/10/09 08:31:45;;;;;;;10.10;5.90;;;;;;;5.73;100.00;98347.73;106798;1269;24068;-90
2023/10/09 08:34:53;;;;;;;7.60;6.80;;;;;;;5.70;100.00;98337.97;106871;1280;22579;-87
2023/10/09 08:37:13;;;;;;;8.10;5.90;;;;;;;5.75;100.00;98327.21;106785;1280;22671;-89
2023/10/09 08:39:42;;;;;;;6.70;5.70;;;;;;;5.83;100.00;98315.98;106866;1280;22524;-88
2023/10/09 08:42:10;;;;;;;7.60;5.80;;;;;;;5.95;100.00;98304.85;106863;1280;22640;-88
2023/10/09 08:44:44;;;;;;;6.20;5.50;;;;;;;6.08;100.00;98299.48;106957;1280;22649;-90
2023/10/09 08:47:12;;;;;;;7.40;6.10;;;;;;;6.23;100.00;98293.02;106954;1280;25262;-89
2023/10/09 08:49:42;;;;;;;10.00;6.60;;;;;;;6.39;100.00;98285.33;106710;1280;22528;-89
2023/10/09 08:52:10;;;;;;;9.30;6.60;;;;;;;6.58;100.00;98283.67;106936;1280;22579;-89
2023/10/09 08:54:38;;;;;;;7.30;6.10;;;;;;;6.72;100.00;98279.92;106924;1280;22621;-90
2023/10/09 08:57:09;;;;;;;9.80;8.50;;;;;;;6.84;100.00;98265.43;107719;1280;22548;-91
2023/10/09 08:59:44;;;;;;;8.30;7.00;;;;;;;6.87;100.00;98254.08;110003;1280;22543;-89
2023/10/09 09:02:17;;;;;;;7.60;6.90;;;;;;;6.90;100.00;98244.98;109090;1270;24217;-90
2023/10/09 09:04:50;;;;;;;8.40;7.40;;;;;;;6.93;100.00;98246.64;106977;1280;23913;-89
2023/10/09 09:07:26;;;;;;;6.70;5.80;;;;;;;6.98;100.00;98244.82;106956;1280;24398;-90
2023/10/09 09:09:57;;;;;;;7.40;6.70;;;;;;;7.05;100.00;98238.52;106939;1280;22556;-89
2023/10/09 09:12:28;;;;;;;8.50;5.50;;;;;;;7.09;100.00;98238.79;106972;1280;22526;-88
2023/10/09 09:14:58;;;;;;;9.00;7.30;;;;;;;7.06;100.00;98236.52;107165;1280;22532;-88
2023/10/09 09:17:32;;;;;;;6.80;5.50;;;;;;;7.00;100.00;98235.56;106844;1280;24245;-89
2023/10/09 09:20:22;;;;;;;10.60;7.90;;;;;;;6.96;100.00;98234.48;107101;1280;25295;-89
2023/10/09 09:22:58;;;;;;;8.40;7.30;;;;;;;6.94;100.00;98223.98;107059;1280;22547;-89
2023/10/09 09:25:45;;;;;;;7.20;6.00;;;;;;;6.97;100.00;98219.09;106866;1280;24252;-89
2023/10/09 09:28:21;;;;;;;6.80;6.10;;;;;;;6.98;100.00;98217.50;106819;1280;24306;-88
2023/10/09 09:30:51;;;;;;;10.30;6.80;;;;;;;6.96;100.00;98214.86;106775;1280;22600;-87
2023/10/09 09:35:58;;;;;;;12.90;11.20;;;;;;;6.94;100.00;98208.23;107117;1280;22557;-87
2023/10/09 09:38:27;;;;;;;5.80;5.00;;;;;;;6.91;100.00;98205.23;107280;1280;22539;-88
2023/10/09 09:41:07;;;;;;;5.60;4.70;;;;;;;6.90;100.00;98196.27;107608;1280;22740;-89
2023/10/09 09:43:40;;;;;;;6.30;4.90;;;;;;;6.91;100.00;98205.71;107958;1280;22594;-89
2023/10/09 09:46:12;;;;;;;5.30;4.60;;;;;;;6.93;100.00;98202.39;107126;1280;22579;-89
2023/10/09 09:48:44;;;;;;;8.70;7.80;;;;;;;6.91;100.00;98200.14;106982;1280;22565;-89
2023/10/09 09:51:17;;;;;;;8.60;6.20;;;;;;;6.89;100.00;98195.80;106929;1280;24443;-89
2023/10/09 09:53:49;;;;;;;10.10;9.10;;;;;;;6.89;100.00;98190.01;106871;1280;24277;-89
2023/10/09 09:56:21;;;;;;;6.70;5.40;;;;;;;6.90;100.00;98182.55;106672;1280;22521;-87
2023/10/09 09:58:56;;;;;;;6.10;4.70;;;;;;;6.90;100.00;98176.34;106741;1280;22768;-87
2023/10/09 10:01:36;;;;;;;5.80;4.80;;;;;;;6.91;100.00;98172.39;106759;1280;23623;-88
2023/10/09 10:04:13;;;;;;;7.50;4.90;;;;;;;6.86;100.00;98166.22;106770;1280;22547;-87
2023/10/09 10:06:45;;;;;;;7.40;6.00;;;;;;;6.80;100.00;98162.20;106814;1280;25425;-90
2023/10/09 10:09:45;;;;;;;7.50;6.30;;;;;;;6.80;100.00;98160.34;106816;1280;22737;-89
2023/10/09 10:12:14;;;;;;;6.80;6.10;;;;;;;6.79;100.00;98159.58;106915;1280;25303;-87
2023/10/09 10:14:59;;;;;;;8.20;7.40;;;;;;;6.78;100.00;98170.08;106879;1280;24473;-88
2023/10/09 10:17:29;;;;;;;7.50;6.80;;;;;;;6.74;100.00;98173.06;106801;1280;25335;-87
2023/10/09 10:20:00;;;;;;;7.30;6.50;;;;;;;6.69;100.00;98171.36;106989;1280;22767;-87
2023/10/09 10:22:30;;;;;;;6.00;5.10;;;;;;;6.66;100.00;98174.61;106849;1280;22625;-86
2023/10/09 10:25:02;;;;;;;8.10;7.30;;;;;;;6.66;100.00;98172.16;106854;1280;23914;-86
2023/10/09 10:30:11;;;;;;;8.40;6.00;;;;;;;6.71;100.00;98168.09;107081;1280;22568;-88
2023/10/09 10:32:51;;;;;;;6.70;5.90;;;;;;;6.67;100.00;98155.23;106887;1258;23232;-87
2023/10/09 10:38:46;;;;;;;10.40;6.50;;;;;;;6.65;100.00;98143.06;106732;1280;22538;-87
2023/10/09 10:41:22;;;;;;;9.60;6.00;;;;;;;6.69;100.00;98143.66;106828;1280;22545;-87
2023/10/09 10:46:34;;;;;;;9.30;8.10;;;;;;;6.75;100.00;98142.27;106816;1280;22591;-87
2023/10/09 10:51:49;;;;;;;10.00;8.70;;;;;;;6.78;100.00;98131.29;107212;1269;23949;-88
2023/10/09 10:57:03;;;;;;;8.10;5.90;;;;;;;6.77;100.00;98122.40;107455;1280;22581;-88
2023/10/09 10:59:39;;;;;;;5.60;5.10;;;;;;;6.81;100.00;98117.95;106862;1280;24372;-88
2023/10/09 11:04:43;;;;;;;7.30;6.00;;;;;;;6.72;100.00;98091.39;106834;1280;22534;-89
2023/10/09 11:23:53;;;;;;;12.40;9.10;;;;;;;6.47;100.00;98046.20;107776;1280;22565;-89
2023/10/09 11:26:30;;;;;;;11.20;8.70;;;;;;;6.44;100.00;98039.68;106786;1280;25355;-88
2023/10/09 11:29:13;;;;;;;9.60;8.60;;;;;;;6.42;100.00;98041.13;106967;1270;22548;-86
2023/10/09 11:32:05;;;;;;;7.10;5.90;;;;;;;6.44;100.00;98038.66;106801;1280;24291;-87
2023/10/09 11:34:35;;;;;;;9.30;7.50;;;;;;;6.46;100.00;98042.13;106896;1280;22789;-87
2023/10/09 11:37:15;;;;;;;7.90;7.00;;;;;;;6.43;100.00;98038.13;106806;1280;25324;-87
2023/10/09 11:39:52;;;;;;;8.70;6.80;;;;;;;6.37;100.00;98037.16;106812;1280;25373;-87
2023/10/09 11:42:35;;;;;;;9.30;7.00;;;;;;;6.30;100.00;98037.75;106849;1280;22630;-86
2023/10/09 11:45:24;;;;;;;6.60;5.10;;;;;;;6.29;100.00;98035.02;106987;1280;25429;-87
2023/10/09 11:47:59;;;;;;;7.90;6.20;;;;;;;6.27;100.00;98038.88;106882;1280;22642;-87
2023/10/09 11:50:48;;;;;;;8.30;6.10;;;;;;;6.30;100.00;98036.24;106893;1269;24344;-87
2023/10/09 11:53:19;;;;;;;7.30;6.40;;;;;;;6.27;100.00;98027.85;106978;1280;24344;-87
2023/10/09 11:55:49;;;;;;;12.90;8.00;;;;;;;6.23;100.00;98025.76;107029;1280;23935;-86
2023/10/09 11:58:24;;;;;;;9.80;7.50;;;;;;;6.21;100.00;98014.63;106932;1277;24225;-86
2023/10/09 12:00:58;;;;;;;12.50;10.00;;;;;;;6.21;100.00;98005.86;106861;1280;23922;-87
2023/10/09 12:03:29;;;;;;;12.80;10.20;;;;;;;6.23;100.00;98003.33;106893;1280;25297;-89
2023/10/09 12:06:11;;;;;;;12.90;8.60;;;;;;;6.20;100.00;98003.92;107075;1280;25242;-87
2023/10/09 12:08:40;;;;;;;11.60;9.70;;;;;;;6.19;100.00;98007.23;106778;1268;22615;-86
2023/10/09 12:11:52;;;;;;;9.60;7.50;;;;;;;6.19;100.00;98013.81;106822;1280;25250;-86
2023/10/09 12:14:43;;;;;;;7.20;6.30;;;;;;;6.22;100.00;98014.24;106924;1280;24248;-86
2023/10/09 12:17:11;;;;;;;14.30;9.30;;;;;;;6.28;100.00;98014.30;106834;1280;25431;-86
2023/10/09 12:19:40;;;;;;;9.10;7.10;;;;;;;6.36;100.00;98018.95;106870;1280;22642;-86
2023/10/09 12:22:16;;;;;;;10.00;9.00;;;;;;;6.43;100.00;98021.27;106858;1280;23053;-87
2023/10/09 12:24:45;;;;;;;9.40;6.70;;;;;;;6.46;100.00;98017.30;106870;1280;23404;-86
2023/10/09 12:27:13;;;;;;;9.30;8.30;;;;;;;6.44;100.00;98018.42;106968;1280;25336;-86
2023/10/09 12:29:44;;;;;;;9.20;6.60;;;;;;;6.40;100.00;98012.59;106868;1280;22547;-87
2023/10/09 12:32:20;;;;;;;6.10;5.00;;;;;;;6.41;100.00;98008.90;106946;1280;22651;-84
2023/10/09 12:34:50;;;;;;;6.10;5.30;;;;;;;6.38;100.00;98009.11;106856;1280;24183;-86
2023/10/09 12:37:20;;;;;;;7.60;6.80;;;;;;;6.37;100.00;98001.83;106876;1280;23291;-86
2023/10/09 12:39:50;;;;;;;11.40;7.20;;;;;;;6.36;100.00;97999.74;106876;1259;22579;-86
2023/10/09 12:42:18;;;;;;;7.40;6.60;;;;;;;6.35;100.00;97999.74;106956;1280;22538;-86
2023/10/09 12:44:46;;;;;;;10.50;8.10;;;;;;;6.33;100.00;98003.39;106924;1280;24383;-87
2023/10/09 12:47:13;;;;;;;10.00;7.10;;;;;;;6.36;100.00;98000.44;106869;1280;25410;-88
2023/10/09 12:49:44;;;;;;;14.60;11.90;;;;;;;6.41;100.00;97997.22;106840;1280;23559;-88
2023/10/09 12:52:16;;;;;;;9.60;8.60;;;;;;;6.44;100.00;97992.35;106857;1280;22572;-88
2023/10/09 12:54:48;;;;;;;12.60;11.40;;;;;;;6.43;100.00;98006.85;106922;1280;22536;-86
2023/10/09 12:57:16;;;;;;;17.30;15.90;;;;;;;6.43;100.00;98007.18;106864;1280;24303;-86
2023/10/09 12:59:48;;;;;;;238.10;152.60;;;;;;;6.43;100.00;98004.98;106727;1280;22539;-88
2023/10/09 13:02:28;;;;;;;70.70;63.70;;;;;;;6.46;100.00;98006.27;106877;1280;24380;-88
2023/10/09 13:04:59;;;;;;;21.80;19.90;;;;;;;6.49;100.00;98007.50;106985;1280;24341;-88
2023/10/09 13:07:28;;;;;;;11.90;10.80;;;;;;;6.48;100.00;98010.66;107034;1280;24407;-87
2023/10/09 13:10:08;;;;;;;9.00;8.20;;;;;;;6.49;100.00;98014.18;107565;1280;22542;-87
2023/10/09 13:12:42;;;;;;;7.80;7.10;;;;;;;6.50;100.00;98018.31;107235;1280;23945;-86
2023/10/09 13:15:11;;;;;;;9.10;8.30;;;;;;;6.47;100.00;98015.69;107015;1280;24292;-87
2023/10/09 13:17:41;;;;;;;9.70;8.30;;;;;;;6.48;100.00;98013.44;106981;1280;25320;-88
2023/10/09 13:20:16;;;;;;;15.10;11.40;;;;;;;6.52;100.00;98011.08;107033;1280;22531;-87
2023/10/09 13:22:47;;;;;;;13.60;12.20;;;;;;;6.55;100.00;98000.73;106881;1280;25458;-86
2023/10/09 13:25:16;;;;;;;9.90;8.90;;;;;;;6.57;100.00;97992.93;107025;1280;23129;-87
2023/10/09 13:28:03;;;;;;;8.90;7.10;;;;;;;6.63;100.00;97990.98;106905;1257;22612;-87
2023/10/09 13:30:39;;;;;;;8.90;7.80;;;;;;;6.62;100.00;97985.75;107183;1280;24402;-89
2023/10/09 13:33:09;;;;;;;10.70;9.40;;;;;;;6.61;100.00;97977.50;108621;1280;22861;-89
2023/10/09 13:35:37;;;;;;;16.60;14.90;;;;;;;6.62;100.00;97966.85;109472;1280;22542;-88
2023/10/09 13:38:09;;;;;;;15.80;14.30;;;;;;;6.66;100.00;97962.77;108005;1280;22531;-87
2023/10/09 13:40:38;;;;;;;13.90;12.50;;;;;;;6.72;100.00;97956.48;106883;1280;25242;-88
2023/10/09 13:43:06;;;;;;;12.40;11.00;;;;;;;6.73;100.00;97949.25;106863;1280;23922;-88
2023/10/09 13:45:39;;;;;;;13.90;12.60;;;;;;;6.74;100.00;97948.88;106941;1280;22642;-87
2023/10/09 13:48:11;;;;;;;12.90;11.60;;;;;;;6.76;100.00;97953.79;106808;1280;24353;-89
2023/10/09 13:50:42;;;;;;;15.50;13.90;;;;;;;6.76;100.00;97955.07;106770;1280;22545;-87
2023/10/09 13:53:12;;;;;;;20.30;18.30;;;;;;;6.74;100.00;97961.30;106782;1280;25572;-88
2023/10/09 13:55:43;;;;;;;15.10;13.60;;;;;;;6.75;100.00;97956.68;106806;1280;25606;-88
2023/10/09 13:58:14;;;;;;;13.90;12.60;;;;;;;6.75;100.00;97962.04;106959;1280;22533;-88
2023/10/09 14:00:42;;;;;;;11.70;10.50;;;;;;;6.73;100.00;97969.98;106829;1280;24200;-87
2023/10/09 14:03:13;;;;;;;13.40;12.10;;;;;;;6.72;100.00;97970.46;106831;1280;22540;-88
2023/10/09 14:06:00;;;;;;;18.50;16.80;;;;;;;6.66;100.00;97965.71;106743;1280;24256;-87
2023/10/09 14:08:29;;;;;;;14.40;13.00;;;;;;;6.63;100.00;97969.78;106821;1280;22483;-86
2023/10/09 14:10:57;;;;;;;10.80;9.80;;;;;;;6.63;100.00;97967.32;106792;1280;23160;-86
2023/10/09 14:13:28;;;;;;;10.90;9.80;;;;;;;6.65;100.00;97965.34;106824;1280;22789;-86
2023/10/09 14:15:59;;;;;;;11.70;10.50;;;;;;;6.67;100.00;97960.03;106802;1280;25529;-87
2023/10/09 14:18:29;;;;;;;9.10;8.20;;;;;;;6.66;100.00;97960.25;107088;1278;23018;-87
2023/10/09 14:21:09;;;;;;;15.70;14.40;;;;;;;6.67;100.00;97961.63;107391;1280;22637;-86
2023/10/09 14:23:38;;;;;;;11.30;10.20;;;;;;;6.66;100.00;97950.61;106998;1280;25320;-87
2023/10/09 14:26:06;;;;;;;11.00;9.90;;;;;;;6.60;100.00;97934.45;107059;1280;22752;-87
2023/10/09 14:28:34;;;;;;;13.10;11.80;;;;;;;6.54;100.00;97936.77;107266;1280;22579;-86
2023/10/09 14:31:11;;;;;;;15.10;13.50;;;;;;;6.54;100.00;97935.54;107642;1280;22545;-88